Time;durP1;ratioP1;P1;durP2;ratioP2;P2;SDS_P1;SDS_P2;PMS_P1;PMS_P2;Temp;Humidity;BMP_temperature;BMP_pressure;BME280_temperature;BME280_humidity;BME280_pressure;Samples;Min_cycle;Max_cycle;Signal;HPM_P1;HPM_P2
2021/10/25 00:00:15;;;;;;;7.10;6.40;;;;;;;;;;5112689;28;20183;-88
2021/10/25 00:03:00;;;;;;;7.70;6.37;;;;;;;;;;5112721;28;20556;-88
2021/10/25 00:05:47;;;;;;;6.87;6.27;;;;;;;;;;5112567;28;20281;-88
2021/10/25 00:08:32;;;;;;;6.87;6.27;;;;;;;;;;5112472;28;20196;-87
2021/10/25 00:11:17;;;;;;;7.57;6.87;;;;;;;;;;5112267;28;20184;-88
2021/10/25 00:14:02;;;;;;;13.50;6.93;;;;;;;;;;5112509;28;20242;-87
2021/10/25 00:16:48;;;;;;;7.40;6.40;;;;;;;;;;5112207;28;20227;-88
2021/10/25 00:19:33;;;;;;;6.90;6.30;;;;;;;;;;5111791;28;20192;-88
2021/10/25 00:22:20;;;;;;;8.93;7.17;;;;;;;;;;5112119;28;20261;-87
2021/10/25 00:25:05;;;;;;;8.20;6.80;;;;;;;;;;5112328;28;20208;-88
2021/10/25 00:27:50;;;;;;;7.00;6.40;;;;;;;;;;5111847;28;20181;-87
2021/10/25 00:30:35;;;;;;;8.83;6.60;;;;;;;;;;5111947;28;20189;-88
2021/10/25 00:33:20;;;;;;;7.90;6.87;;;;;;;;;;5111984;28;20192;-88
2021/10/25 00:36:05;;;;;;;7.80;6.43;;;;;;;;;;5112047;28;20208;-88
2021/10/25 00:38:51;;;;;;;7.37;6.07;;;;;;;;;;5112138;28;20192;-88
2021/10/25 00:41:36;;;;;;;7.57;6.07;;;;;;;;;;5112467;28;20184;-88
2021/10/25 00:44:21;;;;;;;6.83;6.20;;;;;;;;;;5112305;28;20212;-88
2021/10/25 00:47:07;;;;;;;7.30;6.60;;;;;;;;;;5112368;28;20192;-88
2021/10/25 00:49:53;;;;;;;8.63;6.20;;;;;;;;;;5112192;28;20630;-88
2021/10/25 00:52:38;;;;;;;7.43;6.30;;;;;;;;;;5112286;28;20552;-88
2021/10/25 00:55:25;;;;;;;7.13;6.43;;;;;;;;;;5112322;28;20195;-88
2021/10/25 00:58:10;;;;;;;6.93;6.20;;;;;;;;;;5112402;28;20185;-88
2021/10/25 01:00:55;;;;;;;7.10;6.40;;;;;;;;;;5114460;28;20200;-88
2021/10/25 01:03:41;;;;;;;6.40;5.90;;;;;;;;;;5115615;28;20188;-88
2021/10/25 01:06:26;;;;;;;7.80;5.87;;;;;;;;;;5116234;28;20311;-88
2021/10/25 01:09:12;;;;;;;7.40;5.87;;;;;;;;;;5116078;28;20192;-88
2021/10/25 01:11:59;;;;;;;6.97;6.27;;;;;;;;;;5115847;28;20192;-88
2021/10/25 01:14:44;;;;;;;6.57;5.67;;;;;;;;;;5116058;28;20549;-88
2021/10/25 01:17:29;;;;;;;6.50;5.90;;;;;;;;;;5115708;28;20180;-88
2021/10/25 01:20:15;;;;;;;7.00;6.30;;;;;;;;;;5115680;28;20192;-88
2021/10/25 01:23:01;;;;;;;7.17;6.47;;;;;;;;;;5115671;28;20302;-88
2021/10/25 01:25:46;;;;;;;8.23;6.30;;;;;;;;;;5115227;28;20201;-88
2021/10/25 01:28:31;;;;;;;6.93;5.80;;;;;;;;;;5115526;28;20711;-88
2021/10/25 01:31:16;;;;;;;7.90;6.80;;;;;;;;;;5115463;28;20698;-88
2021/10/25 01:34:02;;;;;;;7.33;6.50;;;;;;;;;;5115437;28;20192;-88
2021/10/25 01:36:48;;;;;;;8.53;6.97;;;;;;;;;;5115517;28;20180;-87
2021/10/25 01:39:33;;;;;;;7.23;6.53;;;;;;;;;;5115413;28;20648;-88
2021/10/25 01:42:18;;;;;;;8.23;6.83;;;;;;;;;;5115326;28;20652;-87
2021/10/25 01:45:04;;;;;;;11.07;7.60;;;;;;;;;;5115505;28;20568;-88
2021/10/25 01:47:49;;;;;;;7.63;6.93;;;;;;;;;;5115138;28;20184;-87
2021/10/25 01:50:34;;;;;;;9.10;8.20;;;;;;;;;;5115245;28;20301;-88
2021/10/25 01:53:20;;;;;;;7.50;6.80;;;;;;;;;;5114755;28;20353;-88
2021/10/25 01:56:06;;;;;;;7.60;6.90;;;;;;;;;;5115052;28;20177;-87
2021/10/25 01:58:51;;;;;;;8.57;7.00;;;;;;;;;;5114963;28;20668;-87
2021/10/25 02:01:36;;;;;;;7.80;6.83;;;;;;;;;;5115212;28;20266;-87
2021/10/25 02:04:21;;;;;;;7.43;6.73;;;;;;;;;;5115598;28;20189;-87
2021/10/25 02:07:06;;;;;;;8.30;6.90;;;;;;;;;;5115424;28;20329;-87
2021/10/25 02:09:53;;;;;;;7.07;6.37;;;;;;;;;;5114799;28;20287;-88
2021/10/25 02:12:38;;;;;;;7.43;6.73;;;;;;;;;;5113664;28;20258;-87
2021/10/25 02:15:23;;;;;;;7.00;5.97;;;;;;;;;;5114967;28;20184;-87
2021/10/25 02:18:08;;;;;;;6.60;6.00;;;;;;;;;;5114528;28;20265;-87
2021/10/25 02:20:53;;;;;;;6.93;6.00;;;;;;;;;;5114629;28;20238;-87
2021/10/25 02:23:38;;;;;;;6.50;5.90;;;;;;;;;;5114646;28;20195;-87
2021/10/25 02:26:24;;;;;;;7.13;6.23;;;;;;;;;;5114576;28;20204;-87
2021/10/25 02:29:10;;;;;;;6.30;5.80;;;;;;;;;;5114825;28;20184;-87
2021/10/25 02:31:55;;;;;;;8.87;6.77;;;;;;;;;;5114400;28;20291;-87
2021/10/25 02:34:40;;;;;;;7.30;6.10;;;;;;;;;;5114518;28;20606;-88
2021/10/25 02:37:25;;;;;;;8.77;6.67;;;;;;;;;;5114292;28;20176;-87
2021/10/25 02:40:11;;;;;;;7.00;6.30;;;;;;;;;;5114863;28;20184;-87
2021/10/25 02:42:59;;;;;;;6.93;6.20;;;;;;;;;;5114326;28;20185;-87
2021/10/25 02:45:44;;;;;;;8.40;6.10;;;;;;;;;;5113900;28;20770;-87
2021/10/25 02:48:29;;;;;;;8.37;6.70;;;;;;;;;;5113677;28;20226;-87
2021/10/25 02:51:15;;;;;;;7.27;5.97;;;;;;;;;;5113722;28;20236;-87
2021/10/25 02:54:00;;;;;;;6.43;5.67;;;;;;;;;;5113454;28;20232;-87
2021/10/25 02:56:46;;;;;;;7.23;5.33;;;;;;;;;;5113804;28;20651;-88
2021/10/25 02:59:32;;;;;;;6.40;5.87;;;;;;;;;;5113782;28;20672;-87
2021/10/25 03:02:17;;;;;;;6.63;6.03;;;;;;;;;;5113636;28;20242;-87
2021/10/25 03:05:03;;;;;;;6.80;6.20;;;;;;;;;;5113465;28;20188;-87
2021/10/25 03:07:49;;;;;;;6.20;5.63;;;;;;;;;;5113598;28;20318;-87
2021/10/25 03:10:34;;;;;;;11.83;6.40;;;;;;;;;;5113505;28;20188;-87
2021/10/25 03:13:21;;;;;;;7.27;6.00;;;;;;;;;;5113431;28;20642;-87
2021/10/25 03:16:07;;;;;;;7.90;6.03;;;;;;;;;;5113231;28;20573;-87
2021/10/25 03:18:52;;;;;;;6.30;5.73;;;;;;;;;;5113168;28;20187;-87
2021/10/25 03:21:37;;;;;;;7.10;5.77;;;;;;;;;;5113215;28;20184;-86
2021/10/25 03:24:23;;;;;;;6.60;5.90;;;;;;;;;;5112929;28;20265;-87
2021/10/25 03:27:08;;;;;;;6.97;5.73;;;;;;;;;;5113220;28;20572;-88
2021/10/25 03:29:53;;;;;;;6.37;5.80;;;;;;;;;;5113169;28;20184;-85
2021/10/25 03:32:40;;;;;;;7.07;5.63;;;;;;;;;;5112932;28;20552;-87
2021/10/25 03:35:26;;;;;;;6.07;5.57;;;;;;;;;;5112836;28;20184;-86
2021/10/25 03:38:12;;;;;;;6.70;6.00;;;;;;;;;;5112048;28;20196;-88
2021/10/25 03:40:58;;;;;;;7.53;5.80;;;;;;;;;;5112307;28;20200;-87
2021/10/25 03:43:48;;;;;;;7.60;6.10;;;;;;;;;;5112348;28;20188;-87
2021/10/25 03:46:38;;;;;;;7.27;6.00;;;;;;;;;;5112998;28;20683;-88
2021/10/25 03:49:31;;;;;;;6.47;5.90;;;;;;;;;;5112441;28;20181;-89
2021/10/25 03:52:22;;;;;;;6.87;6.17;;;;;;;;;;5112173;28;20181;-90
2021/10/25 03:55:11;;;;;;;7.27;5.87;;;;;;;;;;5112922;28;20193;-90
2021/10/25 03:58:21;;;;;;;7.03;6.13;;;;;;;;;;5112849;28;20266;-90
2021/10/25 04:01:19;;;;;;;9.00;6.07;;;;;;;;;;5112573;28;20180;-90
2021/10/25 04:04:23;;;;;;;26.97;6.20;;;;;;;;;;5112715;28;20675;-91
2021/10/25 04:26:01;;;;;;;10.00;6.63;;;;;;;;;;5091842;28;20541;-89
2021/10/25 04:28:47;;;;;;;11.17;6.27;;;;;;;;;;5091781;28;20724;-88
2021/10/25 04:31:32;;;;;;;6.60;6.00;;;;;;;;;;5092046;28;20220;-88
2021/10/25 04:34:17;;;;;;;6.40;5.80;;;;;;;;;;5091507;28;20192;-88
2021/10/25 04:37:02;;;;;;;7.20;6.53;;;;;;;;;;5097487;28;20220;-92
2021/10/25 04:39:49;;;;;;;8.47;6.13;;;;;;;;;;5097025;28;20382;-88
2021/10/25 04:42:34;;;;;;;7.03;6.33;;;;;;;;;;5096204;28;20541;-86
2021/10/25 04:45:19;;;;;;;8.17;6.83;;;;;;;;;;5095794;28;20931;-86
2021/10/25 04:48:05;;;;;;;9.97;6.23;;;;;;;;;;5114075;28;20322;-87
2021/10/25 04:50:50;;;;;;;8.83;6.20;;;;;;;;;;5114640;28;20286;-87
2021/10/25 04:53:35;;;;;;;7.73;6.03;;;;;;;;;;5116130;28;20228;-87
2021/10/25 04:56:22;;;;;;;7.70;6.10;;;;;;;;;;5116125;28;20184;-87
2021/10/25 04:59:07;;;;;;;6.47;5.80;;;;;;;;;;5095621;28;20189;-86
2021/10/25 05:01:52;;;;;;;6.73;6.13;;;;;;;;;;5095328;28;20235;-85
2021/10/25 05:04:37;;;;;;;7.57;6.10;;;;;;;;;;5095949;28;20529;-84
2021/10/25 05:07:21;;;;;;;8.07;6.00;;;;;;;;;;5095734;28;20274;-86
2021/10/25 05:10:09;;;;;;;6.53;5.90;;;;;;;;;;5101974;28;20199;-85
2021/10/25 05:12:55;;;;;;;6.90;6.20;;;;;;;;;;5115657;28;20184;-81
2021/10/25 05:15:40;;;;;;;7.70;5.80;;;;;;;;;;5116122;28;20235;-85
2021/10/25 05:18:25;;;;;;;6.20;5.60;;;;;;;;;;5116435;28;20255;-84
2021/10/25 05:21:10;;;;;;;6.10;5.53;;;;;;;;;;5116111;28;20183;-86
2021/10/25 05:23:55;;;;;;;6.80;5.43;;;;;;;;;;5115250;28;20192;-86
2021/10/25 05:26:41;;;;;;;6.13;5.60;;;;;;;;;;5114453;28;20208;-86
2021/10/25 05:29:27;;;;;;;7.10;6.33;;;;;;;;;;5115378;28;20184;-86
2021/10/25 05:32:13;;;;;;;7.60;6.80;;;;;;;;;;5114631;28;20230;-86
2021/10/25 05:34:58;;;;;;;12.10;8.80;;;;;;;;;;5115187;28;20205;-85
2021/10/25 05:37:43;;;;;;;9.83;7.33;;;;;;;;;;5115195;28;20192;-85
2021/10/25 05:40:28;;;;;;;9.30;6.53;;;;;;;;;;5115071;28;20196;-85
2021/10/25 05:43:13;;;;;;;6.63;5.90;;;;;;;;;;5115146;28;20258;-87
2021/10/25 05:46:00;;;;;;;9.37;6.83;;;;;;;;;;5114818;28;20259;-84
2021/10/25 05:48:45;;;;;;;8.13;6.27;;;;;;;;;;5114967;28;20273;-85
2021/10/25 05:51:30;;;;;;;7.20;6.50;;;;;;;;;;5114793;28;20244;-85
2021/10/25 05:54:15;;;;;;;8.83;6.97;;;;;;;;;;5114531;28;20239;-86
2021/10/25 05:57:00;;;;;;;6.80;6.10;;;;;;;;;;5114682;28;20196;-85
2021/10/25 05:59:47;;;;;;;9.17;6.57;;;;;;;;;;5114487;28;20192;-86
2021/10/25 06:02:35;;;;;;;7.40;6.50;;;;;;;;;;5114674;28;20250;-85
2021/10/25 06:05:21;;;;;;;9.23;6.80;;;;;;;;;;5114682;28;20183;-85
2021/10/25 06:08:08;;;;;;;9.27;6.90;;;;;;;;;;5114601;28;20560;-85
2021/10/25 06:10:53;;;;;;;7.60;6.90;;;;;;;;;;5114479;28;20314;-85
2021/10/25 06:13:40;;;;;;;7.97;6.67;;;;;;;;;;5114757;28;20200;-86
2021/10/25 06:16:36;;;;;;;8.50;7.60;;;;;;;;;;5115026;28;20181;-86
2021/10/25 06:19:22;;;;;;;8.07;6.43;;;;;;;;;;5114292;28;20192;-86
2021/10/25 06:22:08;;;;;;;7.90;6.80;;;;;;;;;;5114337;28;20184;-86
2021/10/25 06:24:53;;;;;;;10.13;7.30;;;;;;;;;;5114255;28;20242;-86
2021/10/25 06:27:38;;;;;;;7.97;6.30;;;;;;;;;;5114458;28;20204;-85
2021/10/25 06:30:23;;;;;;;7.97;6.80;;;;;;;;;;5113968;28;20636;-86
2021/10/25 06:33:13;;;;;;;7.97;6.90;;;;;;;;;;5114158;28;20555;-86
2021/10/25 06:36:03;;;;;;;7.50;6.73;;;;;;;;;;5113772;28;20192;-86
2021/10/25 06:38:54;;;;;;;8.20;6.90;;;;;;;;;;5113795;28;20306;-86
2021/10/25 06:41:39;;;;;;;7.73;6.80;;;;;;;;;;5114124;28;20644;-86
2021/10/25 06:44:25;;;;;;;10.33;7.33;;;;;;;;;;5113806;28;20660;-86
2021/10/25 06:47:09;;;;;;;8.13;7.33;;;;;;;;;;5113777;28;20335;-86
2021/10/25 06:49:54;;;;;;;8.33;7.07;;;;;;;;;;5113734;28;20601;-85
2021/10/25 06:52:41;;;;;;;8.60;7.27;;;;;;;;;;5113407;28;20559;-85
2021/10/25 06:55:26;;;;;;;12.70;9.17;;;;;;;;;;5113721;28;20196;-85
2021/10/25 06:58:11;;;;;;;10.13;7.87;;;;;;;;;;5113106;28;20180;-85
2021/10/25 07:00:58;;;;;;;10.47;7.37;;;;;;;;;;5113472;28;20820;-86
2021/10/25 07:03:43;;;;;;;10.90;7.60;;;;;;;;;;5113441;28;20188;-86
2021/10/25 07:06:30;;;;;;;10.20;7.73;;;;;;;;;;5113688;28;20184;-86
2021/10/25 07:09:18;;;;;;;7.80;7.00;;;;;;;;;;5113579;28;20588;-85
2021/10/25 07:12:04;;;;;;;7.67;6.97;;;;;;;;;;5113216;28;20192;-86
2021/10/25 07:14:52;;;;;;;13.93;8.23;;;;;;;;;;5113218;28;20199;-85
2021/10/25 07:17:41;;;;;;;13.17;9.53;;;;;;;;;;5113356;28;20184;-85
2021/10/25 07:20:36;;;;;;;13.70;9.43;;;;;;;;;;5113657;28;20187;-85
2021/10/25 07:23:52;;;;;;;11.53;8.87;;;;;;;;;;5113446;28;20690;-85
2021/10/25 08:06:27;;;;;;;9.63;8.60;;;;;;;;;;5112458;28;20180;-86
2021/10/25 08:09:21;;;;;;;10.70;8.03;;;;;;;;;;5112211;28;20308;-87
2021/10/25 08:12:09;;;;;;;8.03;7.23;;;;;;;;;;5112399;28;20564;-87
2021/10/25 08:14:57;;;;;;;8.00;7.20;;;;;;;;;;5112214;28;20699;-87
2021/10/25 08:17:47;;;;;;;8.63;7.73;;;;;;;;;;5112293;28;20247;-87
2021/10/25 08:20:32;;;;;;;8.30;7.50;;;;;;;;;;5112681;28;20207;-87
2021/10/25 08:23:17;;;;;;;9.27;7.70;;;;;;;;;;5112612;28;20531;-87
2021/10/25 08:26:03;;;;;;;10.80;8.63;;;;;;;;;;5112449;28;20200;-87
2021/10/25 08:28:48;;;;;;;13.80;8.37;;;;;;;;;;5112226;28;20227;-87
2021/10/25 08:31:37;;;;;;;9.57;8.57;;;;;;;;;;5112292;28;20233;-87
2021/10/25 08:34:33;;;;;;;10.27;8.70;;;;;;;;;;5112236;28;20208;-88
2021/10/25 08:40:22;;;;;;;9.67;8.30;;;;;;;;;;5112100;28;20426;-87
2021/10/25 08:43:08;;;;;;;8.57;7.67;;;;;;;;;;5111947;28;20188;-86
2021/10/25 08:45:56;;;;;;;8.63;7.83;;;;;;;;;;5111994;28;20206;-87
2021/10/25 08:48:44;;;;;;;8.13;7.33;;;;;;;;;;5112119;28;20212;-88
2021/10/25 08:51:29;;;;;;;8.67;7.77;;;;;;;;;;5112245;28;20588;-87
2021/10/25 08:54:15;;;;;;;10.13;8.20;;;;;;;;;;5111904;28;20236;-87
2021/10/25 08:57:01;;;;;;;8.93;8.03;;;;;;;;;;5111970;28;20560;-87
2021/10/25 08:59:55;;;;;;;9.90;8.27;;;;;;;;;;5112040;28;20188;-88
2021/10/25 09:02:40;;;;;;;10.60;9.00;;;;;;;;;;5111920;28;20192;-88
2021/10/25 09:05:27;;;;;;;9.23;8.13;;;;;;;;;;5111721;28;20203;-88
2021/10/25 09:08:12;;;;;;;11.83;9.90;;;;;;;;;;5111893;28;20569;-87
2021/10/25 09:10:57;;;;;;;14.37;9.23;;;;;;;;;;5111692;28;20193;-89
2021/10/25 09:13:43;;;;;;;10.07;8.67;;;;;;;;;;5111911;28;20322;-89
2021/10/25 09:16:28;;;;;;;12.93;9.93;;;;;;;;;;5111944;28;20185;-88
2021/10/25 09:19:17;;;;;;;10.83;9.73;;;;;;;;;;5112115;28;20216;-91
2021/10/25 09:22:08;;;;;;;10.60;9.50;;;;;;;;;;5114603;28;20294;-91
2021/10/25 09:24:54;;;;;;;13.23;9.03;;;;;;;;;;5116148;28;20193;-90
2021/10/25 09:27:41;;;;;;;9.17;7.63;;;;;;;;;;5116191;28;20753;-90
2021/10/25 09:30:27;;;;;;;12.10;7.97;;;;;;;;;;5116851;28;20238;-91
2021/10/25 09:33:19;;;;;;;8.80;7.97;;;;;;;;;;5115906;28;20227;-91
2021/10/25 09:36:07;;;;;;;8.53;7.83;;;;;;;;;;5116838;28;20188;-92
2021/10/25 09:39:04;;;;;;;8.03;7.33;;;;;;;;;;5116728;28;20180;-93
2021/10/25 09:42:14;;;;;;;9.07;8.17;;;;;;;;;;5117479;28;20295;-93
2021/10/25 09:45:24;;;;;;;8.57;7.77;;;;;;;;;;5118478;28;20648;-94
2021/10/25 09:51:13;;;;;;;8.80;7.90;;;;;;;;;;5118753;28;20572;-94
2021/10/25 09:54:00;;;;;;;11.30;7.10;;;;;;;;;;5118757;28;20228;-91
2021/10/25 09:57:02;;;;;;;8.97;8.07;;;;;;;;;;5118868;28;20184;-93
2021/10/25 09:59:49;;;;;;;8.87;7.43;;;;;;;;;;5119215;28;20268;-91
2021/10/25 10:02:35;;;;;;;8.93;7.83;;;;;;;;;;5118548;28;20188;-90
2021/10/25 10:05:24;;;;;;;12.93;7.33;;;;;;;;;;5116664;28;20341;-89
2021/10/25 10:08:10;;;;;;;7.90;7.10;;;;;;;;;;5116650;28;20274;-86
2021/10/25 10:10:56;;;;;;;8.27;7.23;;;;;;;;;;5115676;28;20675;-87
2021/10/25 10:13:42;;;;;;;8.13;7.30;;;;;;;;;;5115585;28;20323;-87
2021/10/25 10:16:27;;;;;;;7.80;7.10;;;;;;;;;;5116329;28;20176;-88
2021/10/25 10:19:14;;;;;;;8.47;7.60;;;;;;;;;;5116141;28;20183;-85
2021/10/25 10:22:02;;;;;;;11.83;7.50;;;;;;;;;;5115236;28;20179;-84
2021/10/25 10:24:50;;;;;;;9.57;7.73;;;;;;;;;;5115470;28;20591;-83
2021/10/25 10:27:36;;;;;;;8.03;7.23;;;;;;;;;;5115983;28;20235;-84
2021/10/25 10:30:22;;;;;;;11.50;7.70;;;;;;;;;;5115377;28;20261;-87
2021/10/25 10:33:09;;;;;;;9.10;8.00;;;;;;;;;;5115506;28;20309;-89
2021/10/25 10:35:54;;;;;;;8.47;7.37;;;;;;;;;;5116355;28;20193;-88
2021/10/25 10:38:43;;;;;;;7.90;7.10;;;;;;;;;;5116506;28;20177;-87
2021/10/25 10:41:36;;;;;;;7.73;6.90;;;;;;;;;;5116916;28;20543;-87
2021/10/25 10:44:24;;;;;;;7.47;6.77;;;;;;;;;;5115867;28;20188;-88
2021/10/25 10:47:16;;;;;;;10.57;6.07;;;;;;;;;;5115515;28;20192;-88
2021/10/25 10:50:03;;;;;;;6.17;5.57;;;;;;;;;;5116024;28;20331;-89
2021/10/25 10:52:58;;;;;;;6.30;5.70;;;;;;;;;;5116375;28;20230;-89
2021/10/25 10:55:44;;;;;;;8.13;5.83;;;;;;;;;;5115897;28;20183;-88
2021/10/25 10:58:43;;;;;;;6.10;5.50;;;;;;;;;;5116322;28;20303;-89
2021/10/25 11:01:29;;;;;;;6.87;6.17;;;;;;;;;;5115953;28;20266;-88
2021/10/25 11:04:14;;;;;;;6.23;5.67;;;;;;;;;;5114907;28;20188;-88
2021/10/25 11:07:00;;;;;;;5.90;5.30;;;;;;;;;;5114012;28;20588;-83
2021/10/25 11:09:45;;;;;;;7.60;6.90;;;;;;;;;;5113705;28;20208;-84
2021/10/25 11:12:31;;;;;;;8.17;6.60;;;;;;;;;;5114024;28;20254;-84
2021/10/25 11:15:17;;;;;;;8.83;7.23;;;;;;;;;;5113159;28;20176;-87
2021/10/25 11:18:04;;;;;;;8.30;6.87;;;;;;;;;;5113458;28;20187;-85
2021/10/25 11:20:52;;;;;;;7.00;6.23;;;;;;;;;;5113785;28;20555;-87
2021/10/25 11:23:40;;;;;;;6.77;6.07;;;;;;;;;;5113350;28;20279;-90
2021/10/25 11:26:27;;;;;;;6.90;6.30;;;;;;;;;;5113149;28;20184;-83
2021/10/25 11:29:13;;;;;;;7.93;5.97;;;;;;;;;;5112800;28;20204;-78
2021/10/25 11:32:00;;;;;;;8.27;6.37;;;;;;;;;;5112698;28;20652;-84
2021/10/25 11:34:54;;;;;;;7.40;6.10;;;;;;;;;;5112720;28;20629;-84
2021/10/25 11:37:46;;;;;;;7.33;5.63;;;;;;;;;;5112771;28;20566;-86
2021/10/25 11:40:31;;;;;;;7.97;5.47;;;;;;;;;;5112757;28;20176;-84
2021/10/25 11:43:16;;;;;;;8.67;5.37;;;;;;;;;;5112573;28;20668;-84
2021/10/25 11:46:01;;;;;;;5.70;5.20;;;;;;;;;;5112252;28;20325;-83
2021/10/25 11:48:54;;;;;;;5.93;5.07;;;;;;;;;;5112410;28;20216;-83
2021/10/25 11:51:48;;;;;;;6.63;5.70;;;;;;;;;;5112281;28;20216;-83
2021/10/25 11:54:43;;;;;;;8.13;5.60;;;;;;;;;;5112192;28;20231;-83
2021/10/25 11:57:29;;;;;;;6.30;5.67;;;;;;;;;;5112446;28;20192;-84
2021/10/25 12:00:14;;;;;;;7.50;6.10;;;;;;;;;;5112315;28;20181;-84
2021/10/25 12:03:05;;;;;;;8.10;5.37;;;;;;;;;;5112155;28;20272;-84
2021/10/25 12:05:50;;;;;;;6.67;5.30;;;;;;;;;;5112010;28;20204;-84
2021/10/25 12:08:37;;;;;;;8.53;5.63;;;;;;;;;;5112159;28;20322;-84
2021/10/25 12:11:32;;;;;;;9.57;5.10;;;;;;;;;;5112310;28;20204;-84
2021/10/25 12:14:18;;;;;;;7.27;5.40;;;;;;;;;;5112592;28;20209;-83
2021/10/25 12:17:04;;;;;;;5.70;5.20;;;;;;;;;;5112083;28;20278;-84
2021/10/25 12:19:49;;;;;;;5.80;5.30;;;;;;;;;;5111997;28;20188;-83
2021/10/25 12:22:35;;;;;;;5.33;4.83;;;;;;;;;;5112008;28;20188;-84
2021/10/25 12:25:22;;;;;;;8.30;5.70;;;;;;;;;;5111929;28;20325;-84
2021/10/25 12:28:10;;;;;;;6.70;5.57;;;;;;;;;;5112233;28;20184;-84
2021/10/25 12:31:06;;;;;;;7.73;5.90;;;;;;;;;;5111798;28;20262;-84
2021/10/25 12:34:00;;;;;;;10.83;5.70;;;;;;;;;;5111858;28;20226;-81
2021/10/25 12:36:46;;;;;;;6.53;5.53;;;;;;;;;;5112090;28;20715;-84
2021/10/25 12:39:32;;;;;;;6.00;5.50;;;;;;;;;;5111935;28;20184;-83
2021/10/25 12:42:18;;;;;;;12.37;6.07;;;;;;;;;;5111769;28;20184;-82
2021/10/25 12:45:03;;;;;;;5.93;5.17;;;;;;;;;;5111774;28;20676;-83
2021/10/25 12:47:52;;;;;;;10.93;5.63;;;;;;;;;;5111357;28;20397;-84
2021/10/25 12:50:39;;;;;;;6.47;5.80;;;;;;;;;;5111845;28;20247;-83
2021/10/25 12:53:24;;;;;;;9.63;5.40;;;;;;;;;;5111528;28;20251;-83
2021/10/25 12:56:09;;;;;;;5.77;5.27;;;;;;;;;;5112686;28;20192;-83
2021/10/25 12:59:00;;;;;;;6.17;5.57;;;;;;;;;;5115886;28;20180;-81
2021/10/25 13:01:52;;;;;;;7.27;5.30;;;;;;;;;;5115747;28;20655;-82
2021/10/25 13:04:38;;;;;;;6.47;5.40;;;;;;;;;;5115684;28;20660;-82
2021/10/25 13:07:30;;;;;;;6.30;5.73;;;;;;;;;;5115697;28;20271;-83
2021/10/25 13:10:16;;;;;;;6.03;5.50;;;;;;;;;;5115515;28;20211;-83
2021/10/25 13:13:03;;;;;;;6.23;5.20;;;;;;;;;;5115529;28;20240;-82
2021/10/25 13:15:49;;;;;;;6.00;5.50;;;;;;;;;;5115326;28;20188;-83
2021/10/25 13:18:34;;;;;;;6.17;5.57;;;;;;;;;;5115473;28;20184;-83
2021/10/25 13:21:19;;;;;;;8.57;5.43;;;;;;;;;;5115392;28;20181;-83
2021/10/25 13:24:04;;;;;;;5.97;5.20;;;;;;;;;;5115470;28;20203;-83
2021/10/25 13:26:51;;;;;;;5.43;4.93;;;;;;;;;;5115200;28;20195;-82
2021/10/25 13:29:37;;;;;;;5.23;4.77;;;;;;;;;;5115321;28;20211;-83
2021/10/25 13:32:23;;;;;;;5.30;4.80;;;;;;;;;;5115138;28;20283;-82
2021/10/25 13:35:09;;;;;;;8.70;5.27;;;;;;;;;;5115133;28;20188;-83
2021/10/25 13:37:55;;;;;;;7.23;5.00;;;;;;;;;;5114979;28;20553;-83
2021/10/25 13:40:40;;;;;;;6.27;4.50;;;;;;;;;;5115155;28;20180;-83
2021/10/25 13:43:25;;;;;;;5.43;4.93;;;;;;;;;;5115289;28;20314;-83
2021/10/25 13:46:10;;;;;;;7.37;4.70;;;;;;;;;;5114989;28;20262;-83
2021/10/25 13:48:57;;;;;;;5.27;4.53;;;;;;;;;;5114977;28;20184;-84
2021/10/25 13:51:42;;;;;;;7.17;4.40;;;;;;;;;;5114541;28;20270;-84
2021/10/25 13:54:27;;;;;;;7.97;5.03;;;;;;;;;;5114599;28;20715;-83
2021/10/25 13:57:14;;;;;;;7.73;5.13;;;;;;;;;;5115068;28;20535;-81
2021/10/25 13:59:59;;;;;;;5.80;5.20;;;;;;;;;;5114602;28;20185;-85
2021/10/25 14:02:45;;;;;;;7.37;4.80;;;;;;;;;;5114949;28;20196;-85
2021/10/25 14:05:32;;;;;;;6.23;4.93;;;;;;;;;;5114780;28;20189;-84
2021/10/25 14:08:17;;;;;;;6.70;6.00;;;;;;;;;;5113639;28;20548;-83
2021/10/25 14:11:03;;;;;;;5.43;4.37;;;;;;;;;;5115120;28;20212;-81
2021/10/25 14:13:57;;;;;;;7.80;6.27;;;;;;;;;;5114949;28;20274;-81
2021/10/25 14:16:49;;;;;;;8.13;6.00;;;;;;;;;;5114447;28;20220;-84
2021/10/25 14:19:35;;;;;;;8.33;5.50;;;;;;;;;;5114531;28;20188;-84
2021/10/25 14:22:22;;;;;;;7.07;4.83;;;;;;;;;;5114588;28;20684;-79
2021/10/25 14:25:08;;;;;;;6.10;4.43;;;;;;;;;;5114315;28;20184;-85
2021/10/25 14:27:53;;;;;;;5.33;4.70;;;;;;;;;;5114142;28;20183;-85
2021/10/25 14:30:38;;;;;;;6.40;5.00;;;;;;;;;;5114467;28;20204;-86
2021/10/25 14:33:25;;;;;;;5.70;5.10;;;;;;;;;;5113441;28;20189;-85
2021/10/25 14:36:11;;;;;;;5.20;4.70;;;;;;;;;;5113379;28;20203;-86
2021/10/25 14:42:07;;;;;;;6.13;4.83;;;;;;;;;;5113625;28;20279;-86
2021/10/25 14:44:57;;;;;;;4.97;4.60;;;;;;;;;;5113713;28;20192;-86
2021/10/25 14:53:48;;;;;;;6.07;4.77;;;;;;;;;;5112960;28;20281;-87
2021/10/25 14:56:35;;;;;;;6.83;4.17;;;;;;;;;;5113023;28;20587;-86
2021/10/25 14:59:20;;;;;;;4.93;4.33;;;;;;;;;;5113756;28;20204;-85
2021/10/25 15:02:05;;;;;;;4.53;4.13;;;;;;;;;;5113495;28;20188;-82
2021/10/25 15:04:51;;;;;;;5.57;4.23;;;;;;;;;;5113338;28;20196;-82
2021/10/25 15:07:37;;;;;;;4.77;3.90;;;;;;;;;;5113798;28;20718;-82
2021/10/25 15:10:22;;;;;;;4.20;3.80;;;;;;;;;;5113857;28;20204;-86
2021/10/25 15:13:08;;;;;;;5.63;4.13;;;;;;;;;;5113725;28;20253;-88
2021/10/25 15:15:54;;;;;;;4.00;3.60;;;;;;;;;;5113357;28;20251;-89
2021/10/25 15:18:41;;;;;;;3.87;3.40;;;;;;;;;;5113214;28;20185;-86
2021/10/25 15:21:26;;;;;;;4.63;3.90;;;;;;;;;;5113111;28;20192;-86
2021/10/25 15:24:12;;;;;;;5.90;4.13;;;;;;;;;;5112357;28;20242;-85
2021/10/25 15:26:57;;;;;;;4.80;3.90;;;;;;;;;;5110061;28;20249;-87
2021/10/25 15:29:44;;;;;;;4.67;3.53;;;;;;;;;;5110497;28;20192;-85
2021/10/25 15:32:30;;;;;;;4.33;3.80;;;;;;;;;;5109302;28;20192;-85
2021/10/25 15:35:15;;;;;;;5.83;3.53;;;;;;;;;;5112338;28;20211;-84
2021/10/25 15:38:00;;;;;;;3.50;3.27;;;;;;;;;;5107396;28;20199;-84
2021/10/25 15:40:46;;;;;;;5.30;3.80;;;;;;;;;;5110855;28;20319;-84
2021/10/25 15:43:33;;;;;;;4.57;3.53;;;;;;;;;;5112909;28;20266;-87
2021/10/25 15:46:20;;;;;;;5.73;4.40;;;;;;;;;;5112672;28;20188;-86
2021/10/25 15:49:06;;;;;;;4.93;4.10;;;;;;;;;;5113048;28;20264;-87
2021/10/25 15:51:51;;;;;;;5.07;3.70;;;;;;;;;;5112559;28;20293;-87
2021/10/25 15:54:37;;;;;;;4.13;3.83;;;;;;;;;;5112592;28;20715;-88
2021/10/25 15:57:23;;;;;;;5.33;3.10;;;;;;;;;;5113069;28;20551;-86
2021/10/25 16:00:10;;;;;;;6.00;3.67;;;;;;;;;;5113188;28;20184;-81
2021/10/25 16:02:57;;;;;;;4.50;3.33;;;;;;;;;;5112230;28;20278;-88
2021/10/25 16:05:45;;;;;;;4.33;3.50;;;;;;;;;;5112640;28;20750;-90
2021/10/25 16:08:31;;;;;;;9.23;5.17;;;;;;;;;;5112703;28;20238;-90
2021/10/25 16:11:15;;;;;;;8.30;5.00;;;;;;;;;;5112026;28;20731;-86
2021/10/25 16:14:01;;;;;;;9.47;4.93;;;;;;;;;;5112707;28;20250;-89
2021/10/25 16:16:46;;;;;;;4.57;4.17;;;;;;;;;;5112035;28;20191;-89
2021/10/25 16:19:32;;;;;;;4.90;4.40;;;;;;;;;;5112333;28;20188;-89
2021/10/25 16:22:17;;;;;;;4.57;4.27;;;;;;;;;;5112377;28;20651;-88
2021/10/25 16:25:03;;;;;;;4.13;3.83;;;;;;;;;;5111739;28;20195;-88
2021/10/25 16:27:51;;;;;;;5.37;4.20;;;;;;;;;;5111999;28;20226;-88
2021/10/25 16:30:36;;;;;;;6.13;4.00;;;;;;;;;;5111295;28;20558;-88
2021/10/25 16:33:21;;;;;;;4.30;3.90;;;;;;;;;;5111850;28;20180;-88
2021/10/25 16:36:09;;;;;;;4.80;4.30;;;;;;;;;;5112296;28;20537;-87
2021/10/25 16:38:55;;;;;;;6.63;4.23;;;;;;;;;;5111775;28;20187;-88
2021/10/25 16:41:40;;;;;;;4.93;4.20;;;;;;;;;;5111399;28;20596;-86
2021/10/25 16:44:25;;;;;;;4.93;4.50;;;;;;;;;;5111172;28;20188;-86
2021/10/25 16:47:10;;;;;;;7.70;4.80;;;;;;;;;;5111477;28;21029;-87
2021/10/25 16:49:58;;;;;;;5.67;5.03;;;;;;;;;;5111452;28;20227;-87
2021/10/25 16:52:51;;;;;;;6.93;5.33;;;;;;;;;;5111402;28;20188;-87
2021/10/25 16:55:43;;;;;;;6.10;5.13;;;;;;;;;;5111601;28;20257;-87
2021/10/25 17:04:55;;;;;;;6.40;5.40;;;;;;;;;;5111231;28;20743;-87
2021/10/25 17:10:45;;;;;;;8.47;6.30;;;;;;;;;;5111315;28;20235;-87
2021/10/25 17:13:31;;;;;;;7.53;6.27;;;;;;;;;;5111144;28;20204;-87
2021/10/25 17:16:16;;;;;;;7.47;6.60;;;;;;;;;;5111262;28;20192;-87
2021/10/25 17:19:02;;;;;;;7.17;6.57;;;;;;;;;;5111021;28;20227;-87
2021/10/25 17:21:48;;;;;;;7.30;6.60;;;;;;;;;;5111685;28;20172;-87
2021/10/25 17:24:33;;;;;;;9.17;7.13;;;;;;;;;;5111217;28;20184;-87
2021/10/25 17:27:19;;;;;;;8.33;6.90;;;;;;;;;;5111773;28;20263;-87
2021/10/25 17:30:05;;;;;;;9.07;7.43;;;;;;;;;;5110913;28;20230;-87
2021/10/25 17:32:50;;;;;;;14.40;9.50;;;;;;;;;;5111031;28;20552;-87
2021/10/25 17:35:35;;;;;;;18.07;11.00;;;;;;;;;;5111295;28;20180;-87
2021/10/25 17:38:21;;;;;;;14.77;10.77;;;;;;;;;;5110982;28;20680;-87
2021/10/25 17:41:09;;;;;;;14.67;10.20;;;;;;;;;;5111891;28;20184;-88
2021/10/25 17:43:55;;;;;;;16.50;10.70;;;;;;;;;;5114126;28;20277;-87
2021/10/25 17:46:40;;;;;;;15.00;10.90;;;;;;;;;;5114975;28;20199;-86
2021/10/25 17:49:25;;;;;;;17.27;12.13;;;;;;;;;;5114418;28;20222;-87
2021/10/25 17:52:12;;;;;;;17.03;10.70;;;;;;;;;;5115246;28;20286;-86
2021/10/25 17:54:57;;;;;;;11.90;9.43;;;;;;;;;;5114360;28;20314;-87
2021/10/25 17:57:44;;;;;;;11.83;9.37;;;;;;;;;;5115547;28;20184;-86
2021/10/25 18:00:31;;;;;;;11.43;8.70;;;;;;;;;;5116242;28;20306;-86